Decoded Metar for EPWA (WARSAW in POLAND) (IATA:WAW) | Meteo·Mobile Aviation Weather
aviador You're here:

EPWA Decoded Metar

WARSAW in POLAND
Report Time2018-11-12 17:30:00
UTC Time2018-11-12 17:36:11
Flight Rules vfr VFR
Wind130° at 09 kt
W.Decomp.*RWY 11: 8.7 kt HW 2.3 kt RCW
RWY 15: 8.2 kt HW 3.8 kt LCW
W.Rank130° ranks 5
Current wind is above 130° avg. (6.6)
Visibility9999 m
Phenomena:N/A
Clouds:N/A
Expected CloudBase > 1,200 ft AGL from Temp-Dew spread
CeilingNone
Temp10°C (ISA -4)
Dew Point07°C (82% RH)
AAT6.1°C
QNH1023 hPa
Density Alt-364 ft
Elevation351 ft
Report Wrong Elevation
Raw Report
METAR EPWA 121730Z 13009KT CAVOK 10/07 Q1023 NOSIG=

Extra information for EPWA:More info

Metar Taf Metar & Taf Last 4 Metars F.Rules Stats Wind Profile Meteogram Temp Stats Airport Information Weather charts Add Link Nearby VenuesMetar ALERT Operation Metar Decoded Social comments